Memramcook, Canada
Current Conditions -  °F | °C
As of 3:00 PM on Saturday 25 Oct 2014 (Local Time) from CYQM Reporting Station
Drizzle Drizzle  
Wind Chill: 40°   Ceiling: 800
Heat Index: 46°   Visibility: 6mi
Dew Point: 45°   Wind: 16mph
Humidity: 93%   Direction: 350°N
Pressure: 29.5"   Gusts: NA
Location:  46.01°N, 64.54°W
Report Text: CYQM 251800Z 35014KT 6SM -DZ BR BKN008 OVC012 08/07 A2950 RMK SF5SC3 SLP992
Loading
Personal Weather Stations






























Interactive Weather Map
Tropical Storm Tracking
New forecast layout! Learn more

10-Day Weather Forecast

Advertisements
Track Severe Weather on mobile